sensor_id;sensor_type;location;lat;lon;timestamp;P1;durP1;ratioP1;P2;durP2;ratioP2
31734;SDS011;18313;48.518;9.124;2022-12-18T00:01:46;54.28;;;19.45;;
31734;SDS011;18313;48.518;9.124;2022-12-18T00:04:33;48.35;;;18.17;;
31734;SDS011;18313;48.518;9.124;2022-12-18T00:07:19;45.85;;;18.08;;
31734;SDS011;18313;48.518;9.124;2022-12-18T00:10:04;51.83;;;19.20;;
31734;SDS011;18313;48.518;9.124;2022-12-18T00:12:50;53.08;;;18.92;;
31734;SDS011;18313;48.518;9.124;2022-12-18T00:15:36;47.92;;;17.98;;
31734;SDS011;18313;48.518;9.124;2022-12-18T00:18:23;45.67;;;17.58;;
31734;SDS011;18313;48.518;9.124;2022-12-18T00:21:10;46.90;;;17.95;;
31734;SDS011;18313;48.518;9.124;2022-12-18T00:23:56;46.95;;;17.88;;
31734;SDS011;18313;48.518;9.124;2022-12-18T00:26:43;51.50;;;18.17;;
31734;SDS011;18313;48.518;9.124;2022-12-18T00:29:28;50.45;;;18.98;;
31734;SDS011;18313;48.518;9.124;2022-12-18T00:32:14;48.97;;;17.63;;
31734;SDS011;18313;48.518;9.124;2022-12-18T00:34:59;49.00;;;18.23;;
31734;SDS011;18313;48.518;9.124;2022-12-18T00:37:45;49.00;;;17.65;;
31734;SDS011;18313;48.518;9.124;2022-12-18T00:40:30;48.30;;;18.25;;
31734;SDS011;18313;48.518;9.124;2022-12-18T00:43:16;50.50;;;17.90;;
31734;SDS011;18313;48.518;9.124;2022-12-18T00:46:01;46.03;;;17.15;;
31734;SDS011;18313;48.518;9.124;2022-12-18T00:48:48;40.80;;;16.60;;
31734;SDS011;18313;48.518;9.124;2022-12-18T00:51:34;47.17;;;18.58;;
31734;SDS011;18313;48.518;9.124;2022-12-18T00:54:19;47.15;;;16.80;;
31734;SDS011;18313;48.518;9.124;2022-12-18T00:57:05;51.17;;;17.35;;
31734;SDS011;18313;48.518;9.124;2022-12-18T00:59:50;44.85;;;17.85;;
31734;SDS011;18313;48.518;9.124;2022-12-18T01:02:36;43.85;;;16.95;;
31734;SDS011;18313;48.518;9.124;2022-12-18T01:05:22;46.58;;;17.45;;
31734;SDS011;18313;48.518;9.124;2022-12-18T01:08:07;44.63;;;17.02;;
31734;SDS011;18313;48.518;9.124;2022-12-18T01:10:52;44.83;;;16.88;;
31734;SDS011;18313;48.518;9.124;2022-12-18T01:13:39;43.15;;;16.67;;
31734;SDS011;18313;48.518;9.124;2022-12-18T01:16:25;43.35;;;16.45;;
31734;SDS011;18313;48.518;9.124;2022-12-18T01:19:11;43.72;;;17.23;;
31734;SDS011;18313;48.518;9.124;2022-12-18T01:21:56;52.65;;;17.90;;
31734;SDS011;18313;48.518;9.124;2022-12-18T01:24:42;51.92;;;18.02;;
31734;SDS011;18313;48.518;9.124;2022-12-18T01:27:28;44.05;;;17.48;;
31734;SDS011;18313;48.518;9.124;2022-12-18T01:30:13;49.55;;;18.85;;
31734;SDS011;18313;48.518;9.124;2022-12-18T01:32:59;50.65;;;17.80;;
31734;SDS011;18313;48.518;9.124;2022-12-18T01:35:44;52.55;;;18.40;;
31734;SDS011;18313;48.518;9.124;2022-12-18T01:38:30;40.13;;;17.25;;
31734;SDS011;18313;48.518;9.124;2022-12-18T01:41:16;52.10;;;18.85;;
31734;SDS011;18313;48.518;9.124;2022-12-18T01:44:46;53.33;;;19.60;;
31734;SDS011;18313;48.518;9.124;2022-12-18T01:50:40;44.92;;;18.40;;
31734;SDS011;18313;48.518;9.124;2022-12-18T01:53:27;49.25;;;18.45;;
31734;SDS011;18313;48.518;9.124;2022-12-18T01:56:14;56.88;;;19.73;;
31734;SDS011;18313;48.518;9.124;2022-12-18T01:59:02;54.28;;;19.83;;
31734;SDS011;18313;48.518;9.124;2022-12-18T02:01:51;42.08;;;17.45;;
31734;SDS011;18313;48.518;9.124;2022-12-18T02:04:37;49.33;;;19.08;;
31734;SDS011;18313;48.518;9.124;2022-12-18T02:07:32;53.20;;;19.20;;
31734;SDS011;18313;48.518;9.124;2022-12-18T02:13:46;50.47;;;19.35;;
31734;SDS011;18313;48.518;9.124;2022-12-18T02:26:20;55.35;;;20.63;;
31734;SDS011;18313;48.518;9.124;2022-12-18T02:29:12;49.88;;;20.05;;
31734;SDS011;18313;48.518;9.124;2022-12-18T02:32:02;46.65;;;18.08;;
31734;SDS011;18313;48.518;9.124;2022-12-18T02:34:53;47.15;;;18.90;;
31734;SDS011;18313;48.518;9.124;2022-12-18T02:37:43;47.47;;;17.70;;
31734;SDS011;18313;48.518;9.124;2022-12-18T02:40:30;47.08;;;18.08;;
31734;SDS011;18313;48.518;9.124;2022-12-18T02:43:16;42.70;;;17.88;;
31734;SDS011;18313;48.518;9.124;2022-12-18T02:46:20;47.22;;;17.05;;
31734;SDS011;18313;48.518;9.124;2022-12-18T02:49:26;45.40;;;17.83;;
31734;SDS011;18313;48.518;9.124;2022-12-18T02:52:41;49.40;;;18.17;;
31734;SDS011;18313;48.518;9.124;2022-12-18T02:58:34;48.20;;;18.77;;
31734;SDS011;18313;48.518;9.124;2022-12-18T03:07:48;55.00;;;18.90;;
31734;SDS011;18313;48.518;9.124;2022-12-18T03:10:54;54.08;;;19.38;;
31734;SDS011;18313;48.518;9.124;2022-12-18T03:13:45;60.63;;;20.05;;
31734;SDS011;18313;48.518;9.124;2022-12-18T03:16:41;64.78;;;20.30;;
31734;SDS011;18313;48.518;9.124;2022-12-18T03:19:29;61.58;;;19.75;;
31734;SDS011;18313;48.518;9.124;2022-12-18T03:22:17;64.55;;;20.90;;
31734;SDS011;18313;48.518;9.124;2022-12-18T03:25:06;58.25;;;20.13;;
31734;SDS011;18313;48.518;9.124;2022-12-18T03:27:56;63.15;;;21.20;;
31734;SDS011;18313;48.518;9.124;2022-12-18T03:30:43;56.92;;;20.60;;
31734;SDS011;18313;48.518;9.124;2022-12-18T03:33:38;60.22;;;20.83;;
31734;SDS011;18313;48.518;9.124;2022-12-18T03:36:30;57.97;;;21.02;;
31734;SDS011;18313;48.518;9.124;2022-12-18T03:39:16;66.63;;;22.02;;
31734;SDS011;18313;48.518;9.124;2022-12-18T03:48:34;58.65;;;19.85;;
31734;SDS011;18313;48.518;9.124;2022-12-18T03:51:25;56.45;;;19.83;;
31734;SDS011;18313;48.518;9.124;2022-12-18T03:54:17;55.40;;;19.77;;
31734;SDS011;18313;48.518;9.124;2022-12-18T03:57:08;63.88;;;19.00;;
31734;SDS011;18313;48.518;9.124;2022-12-18T04:00:06;53.95;;;19.30;;
31734;SDS011;18313;48.518;9.124;2022-12-18T04:03:02;60.17;;;19.65;;
31734;SDS011;18313;48.518;9.124;2022-12-18T04:05:50;50.78;;;18.70;;
31734;SDS011;18313;48.518;9.124;2022-12-18T04:08:37;53.35;;;18.80;;
31734;SDS011;18313;48.518;9.124;2022-12-18T04:11:25;54.00;;;19.30;;
31734;SDS011;18313;48.518;9.124;2022-12-18T04:14:11;46.65;;;18.45;;
31734;SDS011;18313;48.518;9.124;2022-12-18T04:17:02;57.47;;;19.40;;
31734;SDS011;18313;48.518;9.124;2022-12-18T04:19:48;57.03;;;19.00;;
31734;SDS011;18313;48.518;9.124;2022-12-18T04:22:33;51.15;;;18.33;;
31734;SDS011;18313;48.518;9.124;2022-12-18T04:25:20;52.22;;;17.92;;
31734;SDS011;18313;48.518;9.124;2022-12-18T04:28:05;52.67;;;19.52;;
31734;SDS011;18313;48.518;9.124;2022-12-18T04:30:51;52.75;;;19.17;;
31734;SDS011;18313;48.518;9.124;2022-12-18T04:33:37;57.25;;;20.17;;
31734;SDS011;18313;48.518;9.124;2022-12-18T04:36:23;53.45;;;18.60;;
31734;SDS011;18313;48.518;9.124;2022-12-18T04:39:12;54.33;;;18.70;;
31734;SDS011;18313;48.518;9.124;2022-12-18T04:41:58;55.15;;;19.05;;
31734;SDS011;18313;48.518;9.124;2022-12-18T04:44:43;52.58;;;18.48;;
31734;SDS011;18313;48.518;9.124;2022-12-18T04:47:29;54.90;;;18.25;;
31734;SDS011;18313;48.518;9.124;2022-12-18T04:50:16;55.28;;;18.33;;
31734;SDS011;18313;48.518;9.124;2022-12-18T04:53:01;56.88;;;18.15;;
31734;SDS011;18313;48.518;9.124;2022-12-18T04:55:47;55.42;;;19.05;;
31734;SDS011;18313;48.518;9.124;2022-12-18T04:58:32;57.53;;;19.98;;
31734;SDS011;18313;48.518;9.124;2022-12-18T05:01:18;58.70;;;19.45;;
31734;SDS011;18313;48.518;9.124;2022-12-18T05:04:04;52.85;;;19.10;;
31734;SDS011;18313;48.518;9.124;2022-12-18T05:06:50;50.65;;;17.80;;
31734;SDS011;18313;48.518;9.124;2022-12-18T05:09:35;58.97;;;18.67;;
31734;SDS011;18313;48.518;9.124;2022-12-18T05:12:24;56.17;;;19.52;;
31734;SDS011;18313;48.518;9.124;2022-12-18T05:15:09;61.10;;;19.58;;
31734;SDS011;18313;48.518;9.124;2022-12-18T05:17:56;63.65;;;19.38;;
31734;SDS011;18313;48.518;9.124;2022-12-18T05:20:43;55.97;;;18.23;;
31734;SDS011;18313;48.518;9.124;2022-12-18T05:23:28;65.78;;;19.42;;
31734;SDS011;18313;48.518;9.124;2022-12-18T05:26:15;65.82;;;20.05;;
31734;SDS011;18313;48.518;9.124;2022-12-18T05:29:02;61.40;;;19.23;;
31734;SDS011;18313;48.518;9.124;2022-12-18T05:31:47;58.35;;;19.20;;
31734;SDS011;18313;48.518;9.124;2022-12-18T05:34:33;57.00;;;19.58;;
31734;SDS011;18313;48.518;9.124;2022-12-18T05:37:18;52.83;;;18.45;;
31734;SDS011;18313;48.518;9.124;2022-12-18T05:40:04;53.63;;;18.45;;
31734;SDS011;18313;48.518;9.124;2022-12-18T05:42:50;54.95;;;18.88;;
31734;SDS011;18313;48.518;9.124;2022-12-18T05:45:37;62.28;;;19.48;;
31734;SDS011;18313;48.518;9.124;2022-12-18T05:48:23;63.83;;;18.48;;
31734;SDS011;18313;48.518;9.124;2022-12-18T05:51:09;52.45;;;16.85;;
31734;SDS011;18313;48.518;9.124;2022-12-18T05:53:57;48.70;;;17.75;;
31734;SDS011;18313;48.518;9.124;2022-12-18T05:56:43;55.88;;;18.30;;
31734;SDS011;18313;48.518;9.124;2022-12-18T05:59:32;53.53;;;18.98;;
31734;SDS011;18313;48.518;9.124;2022-12-18T06:02:18;54.70;;;18.30;;
31734;SDS011;18313;48.518;9.124;2022-12-18T06:05:06;48.35;;;16.25;;
31734;SDS011;18313;48.518;9.124;2022-12-18T06:07:51;54.00;;;17.88;;
31734;SDS011;18313;48.518;9.124;2022-12-18T06:10:37;51.42;;;16.90;;
31734;SDS011;18313;48.518;9.124;2022-12-18T06:13:23;53.78;;;17.38;;
31734;SDS011;18313;48.518;9.124;2022-12-18T06:16:09;49.58;;;16.25;;
31734;SDS011;18313;48.518;9.124;2022-12-18T06:18:56;55.55;;;17.83;;
31734;SDS011;18313;48.518;9.124;2022-12-18T06:21:43;53.83;;;17.65;;
31734;SDS011;18313;48.518;9.124;2022-12-18T06:24:29;47.35;;;16.45;;
31734;SDS011;18313;48.518;9.124;2022-12-18T06:27:15;49.45;;;16.02;;
31734;SDS011;18313;48.518;9.124;2022-12-18T06:30:01;46.55;;;17.52;;
31734;SDS011;18313;48.518;9.124;2022-12-18T06:32:48;45.75;;;14.90;;
31734;SDS011;18313;48.518;9.124;2022-12-18T06:35:40;48.03;;;17.17;;
31734;SDS011;18313;48.518;9.124;2022-12-18T06:38:26;48.15;;;17.23;;
31734;SDS011;18313;48.518;9.124;2022-12-18T06:41:13;46.08;;;16.63;;
31734;SDS011;18313;48.518;9.124;2022-12-18T06:43:59;45.58;;;17.55;;
31734;SDS011;18313;48.518;9.124;2022-12-18T06:46:45;52.90;;;16.63;;
31734;SDS011;18313;48.518;9.124;2022-12-18T06:49:30;43.10;;;16.90;;
31734;SDS011;18313;48.518;9.124;2022-12-18T06:52:16;46.53;;;16.88;;
31734;SDS011;18313;48.518;9.124;2022-12-18T06:55:01;46.58;;;15.63;;
31734;SDS011;18313;48.518;9.124;2022-12-18T06:57:47;44.38;;;15.65;;
31734;SDS011;18313;48.518;9.124;2022-12-18T07:00:32;54.92;;;16.73;;
31734;SDS011;18313;48.518;9.124;2022-12-18T07:03:18;51.15;;;16.30;;
31734;SDS011;18313;48.518;9.124;2022-12-18T07:06:04;42.70;;;15.23;;
31734;SDS011;18313;48.518;9.124;2022-12-18T07:08:50;47.05;;;15.40;;
31734;SDS011;18313;48.518;9.124;2022-12-18T07:11:36;46.88;;;15.75;;
31734;SDS011;18313;48.518;9.124;2022-12-18T07:14:21;44.70;;;15.07;;
31734;SDS011;18313;48.518;9.124;2022-12-18T07:17:07;47.13;;;16.30;;
31734;SDS011;18313;48.518;9.124;2022-12-18T07:19:53;47.80;;;15.73;;
31734;SDS011;18313;48.518;9.124;2022-12-18T07:22:38;42.35;;;15.07;;
31734;SDS011;18313;48.518;9.124;2022-12-18T07:25:24;45.92;;;15.77;;
31734;SDS011;18313;48.518;9.124;2022-12-18T07:28:09;47.47;;;16.67;;
31734;SDS011;18313;48.518;9.124;2022-12-18T07:31:07;45.38;;;16.77;;
31734;SDS011;18313;48.518;9.124;2022-12-18T07:33:55;48.25;;;16.65;;
31734;SDS011;18313;48.518;9.124;2022-12-18T07:36:41;49.83;;;16.70;;
31734;SDS011;18313;48.518;9.124;2022-12-18T07:39:26;49.60;;;16.38;;
31734;SDS011;18313;48.518;9.124;2022-12-18T07:42:12;47.05;;;16.52;;
31734;SDS011;18313;48.518;9.124;2022-12-18T07:45:15;53.75;;;16.85;;
31734;SDS011;18313;48.518;9.124;2022-12-18T07:48:01;41.13;;;16.15;;
31734;SDS011;18313;48.518;9.124;2022-12-18T07:50:46;55.47;;;18.27;;
31734;SDS011;18313;48.518;9.124;2022-12-18T07:53:32;57.55;;;18.85;;
31734;SDS011;18313;48.518;9.124;2022-12-18T07:56:19;46.40;;;17.42;;
31734;SDS011;18313;48.518;9.124;2022-12-18T07:59:14;40.90;;;14.98;;
31734;SDS011;18313;48.518;9.124;2022-12-18T08:02:00;52.88;;;16.98;;
31734;SDS011;18313;48.518;9.124;2022-12-18T08:04:46;47.83;;;16.63;;
31734;SDS011;18313;48.518;9.124;2022-12-18T08:07:31;50.28;;;16.15;;
31734;SDS011;18313;48.518;9.124;2022-12-18T08:10:17;55.50;;;18.30;;
31734;SDS011;18313;48.518;9.124;2022-12-18T08:13:03;45.60;;;17.20;;
31734;SDS011;18313;48.518;9.124;2022-12-18T08:16:02;51.55;;;17.60;;
31734;SDS011;18313;48.518;9.124;2022-12-18T08:18:51;50.03;;;18.67;;
31734;SDS011;18313;48.518;9.124;2022-12-18T08:21:37;58.22;;;19.35;;
31734;SDS011;18313;48.518;9.124;2022-12-18T08:24:22;52.78;;;18.02;;
31734;SDS011;18313;48.518;9.124;2022-12-18T08:27:08;60.45;;;20.13;;
31734;SDS011;18313;48.518;9.124;2022-12-18T08:30:13;66.25;;;20.85;;
31734;SDS011;18313;48.518;9.124;2022-12-18T08:32:58;54.85;;;20.83;;
31734;SDS011;18313;48.518;9.124;2022-12-18T08:35:44;60.10;;;19.90;;
31734;SDS011;18313;48.518;9.124;2022-12-18T08:38:30;62.25;;;20.02;;
31734;SDS011;18313;48.518;9.124;2022-12-18T08:41:17;63.20;;;20.88;;
31734;SDS011;18313;48.518;9.124;2022-12-18T08:44:03;74.40;;;21.42;;
31734;SDS011;18313;48.518;9.124;2022-12-18T08:47:07;64.03;;;22.05;;
31734;SDS011;18313;48.518;9.124;2022-12-18T08:49:53;58.33;;;22.05;;
31734;SDS011;18313;48.518;9.124;2022-12-18T08:52:38;70.60;;;22.58;;
31734;SDS011;18313;48.518;9.124;2022-12-18T08:55:24;72.47;;;22.88;;
31734;SDS011;18313;48.518;9.124;2022-12-18T08:58:09;66.32;;;23.98;;
31734;SDS011;18313;48.518;9.124;2022-12-18T09:01:02;63.58;;;23.48;;
31734;SDS011;18313;48.518;9.124;2022-12-18T09:03:49;70.45;;;23.80;;
31734;SDS011;18313;48.518;9.124;2022-12-18T09:06:35;65.43;;;22.30;;
31734;SDS011;18313;48.518;9.124;2022-12-18T09:09:22;61.85;;;23.05;;
31734;SDS011;18313;48.518;9.124;2022-12-18T09:12:08;64.55;;;23.20;;
31734;SDS011;18313;48.518;9.124;2022-12-18T09:14:54;57.85;;;24.00;;
31734;SDS011;18313;48.518;9.124;2022-12-18T09:17:41;58.72;;;23.50;;
31734;SDS011;18313;48.518;9.124;2022-12-18T09:20:27;62.03;;;23.33;;
31734;SDS011;18313;48.518;9.124;2022-12-18T09:23:14;64.28;;;22.80;;
31734;SDS011;18313;48.518;9.124;2022-12-18T09:26:00;63.17;;;22.73;;
31734;SDS011;18313;48.518;9.124;2022-12-18T09:28:46;75.05;;;27.13;;
31734;SDS011;18313;48.518;9.124;2022-12-18T09:31:32;71.97;;;26.70;;
31734;SDS011;18313;48.518;9.124;2022-12-18T09:34:18;57.20;;;24.00;;
31734;SDS011;18313;48.518;9.124;2022-12-18T09:37:06;66.72;;;23.83;;
31734;SDS011;18313;48.518;9.124;2022-12-18T09:39:52;65.25;;;24.50;;
31734;SDS011;18313;48.518;9.124;2022-12-18T09:42:37;66.20;;;25.63;;
31734;SDS011;18313;48.518;9.124;2022-12-18T09:45:23;69.03;;;26.75;;
31734;SDS011;18313;48.518;9.124;2022-12-18T09:48:18;77.63;;;28.55;;
31734;SDS011;18313;48.518;9.124;2022-12-18T09:51:15;73.07;;;28.88;;
31734;SDS011;18313;48.518;9.124;2022-12-18T09:54:05;99.90;;;39.95;;
31734;SDS011;18313;48.518;9.124;2022-12-18T09:57:01;104.05;;;40.03;;
31734;SDS011;18313;48.518;9.124;2022-12-18T09:59:49;98.28;;;38.25;;
31734;SDS011;18313;48.518;9.124;2022-12-18T10:02:39;86.35;;;34.42;;
31734;SDS011;18313;48.518;9.124;2022-12-18T10:08:49;79.03;;;30.65;;
31734;SDS011;18313;48.518;9.124;2022-12-18T10:21:20;52.38;;;22.17;;
31734;SDS011;18313;48.518;9.124;2022-12-18T10:27:15;54.97;;;23.17;;
31734;SDS011;18313;48.518;9.124;2022-12-18T10:30:14;53.08;;;22.48;;
31734;SDS011;18313;48.518;9.124;2022-12-18T10:33:05;54.92;;;22.23;;
31734;SDS011;18313;48.518;9.124;2022-12-18T10:35:54;51.25;;;22.52;;
31734;SDS011;18313;48.518;9.124;2022-12-18T10:38:40;52.40;;;22.65;;
31734;SDS011;18313;48.518;9.124;2022-12-18T10:41:27;54.65;;;23.50;;
31734;SDS011;18313;48.518;9.124;2022-12-18T10:44:23;55.70;;;24.40;;
31734;SDS011;18313;48.518;9.124;2022-12-18T10:47:14;52.85;;;22.67;;
31734;SDS011;18313;48.518;9.124;2022-12-18T10:50:02;51.40;;;22.35;;
31734;SDS011;18313;48.518;9.124;2022-12-18T10:52:53;52.83;;;23.42;;
31734;SDS011;18313;48.518;9.124;2022-12-18T10:55:40;68.00;;;28.55;;
31734;SDS011;18313;48.518;9.124;2022-12-18T10:58:35;74.55;;;31.45;;
31734;SDS011;18313;48.518;9.124;2022-12-18T11:01:22;64.45;;;29.42;;
31734;SDS011;18313;48.518;9.124;2022-12-18T11:04:08;67.13;;;29.52;;
31734;SDS011;18313;48.518;9.124;2022-12-18T11:06:58;73.22;;;32.35;;
31734;SDS011;18313;48.518;9.124;2022-12-18T11:09:45;52.95;;;24.27;;
31734;SDS011;18313;48.518;9.124;2022-12-18T11:12:46;50.78;;;22.75;;
31734;SDS011;18313;48.518;9.124;2022-12-18T11:15:32;53.85;;;24.02;;
31734;SDS011;18313;48.518;9.124;2022-12-18T11:18:20;54.50;;;24.33;;
31734;SDS011;18313;48.518;9.124;2022-12-18T11:21:15;49.50;;;24.13;;
31734;SDS011;18313;48.518;9.124;2022-12-18T11:24:01;54.65;;;25.80;;
31734;SDS011;18313;48.518;9.124;2022-12-18T11:26:47;124.10;;;47.90;;
31734;SDS011;18313;48.518;9.124;2022-12-18T11:29:40;92.93;;;39.75;;
31734;SDS011;18313;48.518;9.124;2022-12-18T11:35:33;88.20;;;40.13;;
31734;SDS011;18313;48.518;9.124;2022-12-18T11:38:26;88.15;;;42.35;;
31734;SDS011;18313;48.518;9.124;2022-12-18T11:44:35;70.03;;;32.25;;
31734;SDS011;18313;48.518;9.124;2022-12-18T11:50:50;91.22;;;38.20;;
31734;SDS011;18313;48.518;9.124;2022-12-18T11:53:37;58.13;;;26.17;;
31734;SDS011;18313;48.518;9.124;2022-12-18T11:56:32;57.20;;;24.17;;
31734;SDS011;18313;48.518;9.124;2022-12-18T12:05:40;62.28;;;27.35;;
31734;SDS011;18313;48.518;9.124;2022-12-18T12:09:26;56.67;;;26.05;;
31734;SDS011;18313;48.518;9.124;2022-12-18T12:21:41;58.38;;;25.30;;
31734;SDS011;18313;48.518;9.124;2022-12-18T12:24:33;60.45;;;27.05;;
31734;SDS011;18313;48.518;9.124;2022-12-18T12:27:43;58.13;;;26.83;;
31734;SDS011;18313;48.518;9.124;2022-12-18T12:40:04;55.75;;;27.70;;
31734;SDS011;18313;48.518;9.124;2022-12-18T12:43:16;66.15;;;28.77;;
31734;SDS011;18313;48.518;9.124;2022-12-18T12:46:16;65.50;;;29.90;;
31734;SDS011;18313;48.518;9.124;2022-12-18T12:49:16;64.03;;;31.23;;
31734;SDS011;18313;48.518;9.124;2022-12-18T12:52:07;67.93;;;30.80;;
31734;SDS011;18313;48.518;9.124;2022-12-18T12:54:58;61.70;;;29.83;;
31734;SDS011;18313;48.518;9.124;2022-12-18T12:57:57;69.68;;;33.83;;
31734;SDS011;18313;48.518;9.124;2022-12-18T13:16:04;58.67;;;27.17;;
31734;SDS011;18313;48.518;9.124;2022-12-18T13:18:54;59.13;;;27.50;;
31734;SDS011;18313;48.518;9.124;2022-12-18T13:21:43;62.65;;;29.70;;
31734;SDS011;18313;48.518;9.124;2022-12-18T13:24:38;65.50;;;28.58;;
31734;SDS011;18313;48.518;9.124;2022-12-18T13:48:29;66.70;;;28.58;;
31734;SDS011;18313;48.518;9.124;2022-12-18T13:51:17;61.97;;;28.55;;
31734;SDS011;18313;48.518;9.124;2022-12-18T13:54:13;61.22;;;26.77;;
31734;SDS011;18313;48.518;9.124;2022-12-18T13:57:27;61.25;;;26.55;;
31734;SDS011;18313;48.518;9.124;2022-12-18T14:00:27;58.45;;;26.50;;
31734;SDS011;18313;48.518;9.124;2022-12-18T14:03:16;62.40;;;27.25;;
31734;SDS011;18313;48.518;9.124;2022-12-18T14:06:07;66.38;;;30.10;;
31734;SDS011;18313;48.518;9.124;2022-12-18T14:08:53;60.92;;;30.30;;
31734;SDS011;18313;48.518;9.124;2022-12-18T14:11:40;66.90;;;33.15;;
31734;SDS011;18313;48.518;9.124;2022-12-18T14:14:33;66.70;;;31.52;;
31734;SDS011;18313;48.518;9.124;2022-12-18T14:17:18;67.72;;;33.00;;
31734;SDS011;18313;48.518;9.124;2022-12-18T14:20:12;67.65;;;32.70;;
31734;SDS011;18313;48.518;9.124;2022-12-18T14:23:02;66.35;;;32.08;;
31734;SDS011;18313;48.518;9.124;2022-12-18T14:25:47;69.13;;;33.88;;
31734;SDS011;18313;48.518;9.124;2022-12-18T14:28:42;66.72;;;32.35;;
31734;SDS011;18313;48.518;9.124;2022-12-18T14:31:30;71.45;;;32.83;;
31734;SDS011;18313;48.518;9.124;2022-12-18T14:34:16;66.07;;;30.88;;
31734;SDS011;18313;48.518;9.124;2022-12-18T14:37:02;61.38;;;29.00;;
31734;SDS011;18313;48.518;9.124;2022-12-18T14:39:55;72.40;;;31.17;;
31734;SDS011;18313;48.518;9.124;2022-12-18T14:42:43;66.57;;;31.33;;
31734;SDS011;18313;48.518;9.124;2022-12-18T14:51:25;60.80;;;28.40;;
31734;SDS011;18313;48.518;9.124;2022-12-18T14:54:14;63.08;;;28.30;;
31734;SDS011;18313;48.518;9.124;2022-12-18T14:57:05;62.55;;;27.55;;
31734;SDS011;18313;48.518;9.124;2022-12-18T15:00:04;61.55;;;26.55;;
31734;SDS011;18313;48.518;9.124;2022-12-18T15:02:55;60.95;;;28.30;;
31734;SDS011;18313;48.518;9.124;2022-12-18T15:05:41;70.53;;;31.85;;
31734;SDS011;18313;48.518;9.124;2022-12-18T15:08:29;70.45;;;32.15;;
31734;SDS011;18313;48.518;9.124;2022-12-18T15:12:02;71.72;;;31.80;;
31734;SDS011;18313;48.518;9.124;2022-12-18T15:17:22;77.05;;;35.35;;
31734;SDS011;18313;48.518;9.124;2022-12-18T15:20:12;76.53;;;32.65;;
31734;SDS011;18313;48.518;9.124;2022-12-18T15:22:58;76.57;;;35.95;;
31734;SDS011;18313;48.518;9.124;2022-12-18T15:25:44;80.85;;;35.60;;
31734;SDS011;18313;48.518;9.124;2022-12-18T15:28:35;77.50;;;33.95;;
31734;SDS011;18313;48.518;9.124;2022-12-18T15:31:40;82.15;;;36.33;;
31734;SDS011;18313;48.518;9.124;2022-12-18T15:34:26;78.85;;;34.33;;
31734;SDS011;18313;48.518;9.124;2022-12-18T15:37:12;77.97;;;33.58;;
31734;SDS011;18313;48.518;9.124;2022-12-18T15:39:58;74.63;;;32.85;;
31734;SDS011;18313;48.518;9.124;2022-12-18T15:42:43;81.35;;;35.78;;
31734;SDS011;18313;48.518;9.124;2022-12-18T15:48:35;75.18;;;32.78;;
31734;SDS011;18313;48.518;9.124;2022-12-18T15:51:27;78.65;;;31.05;;
31734;SDS011;18313;48.518;9.124;2022-12-18T15:54:17;67.50;;;30.55;;
31734;SDS011;18313;48.518;9.124;2022-12-18T16:00:11;75.97;;;31.50;;
31734;SDS011;18313;48.518;9.124;2022-12-18T16:02:57;75.93;;;31.48;;
31734;SDS011;18313;48.518;9.124;2022-12-18T16:05:42;70.75;;;32.50;;
31734;SDS011;18313;48.518;9.124;2022-12-18T16:08:29;78.22;;;32.45;;
31734;SDS011;18313;48.518;9.124;2022-12-18T16:11:22;80.82;;;36.80;;
31734;SDS011;18313;48.518;9.124;2022-12-18T16:14:23;77.45;;;34.47;;
31734;SDS011;18313;48.518;9.124;2022-12-18T16:17:14;73.57;;;33.42;;
31734;SDS011;18313;48.518;9.124;2022-12-18T16:20:00;74.63;;;31.27;;
31734;SDS011;18313;48.518;9.124;2022-12-18T16:22:46;74.88;;;32.65;;
31734;SDS011;18313;48.518;9.124;2022-12-18T16:25:32;80.22;;;34.40;;
31734;SDS011;18313;48.518;9.124;2022-12-18T16:28:18;95.10;;;40.85;;
31734;SDS011;18313;48.518;9.124;2022-12-18T16:31:04;131.48;;;52.60;;
31734;SDS011;18313;48.518;9.124;2022-12-18T16:33:49;101.93;;;44.63;;
31734;SDS011;18313;48.518;9.124;2022-12-18T16:36:54;86.93;;;37.75;;
31734;SDS011;18313;48.518;9.124;2022-12-18T16:39:48;83.77;;;36.33;;
31734;SDS011;18313;48.518;9.124;2022-12-18T16:42:34;91.68;;;39.80;;
31734;SDS011;18313;48.518;9.124;2022-12-18T16:45:21;90.28;;;38.53;;
31734;SDS011;18313;48.518;9.124;2022-12-18T16:48:07;96.70;;;41.13;;
31734;SDS011;18313;48.518;9.124;2022-12-18T16:50:58;98.72;;;41.83;;
31734;SDS011;18313;48.518;9.124;2022-12-18T16:53:46;88.57;;;39.50;;
31734;SDS011;18313;48.518;9.124;2022-12-18T16:56:32;80.18;;;36.08;;
31734;SDS011;18313;48.518;9.124;2022-12-18T16:59:18;89.05;;;36.80;;
31734;SDS011;18313;48.518;9.124;2022-12-18T17:02:03;87.18;;;38.83;;
31734;SDS011;18313;48.518;9.124;2022-12-18T17:04:52;92.07;;;39.45;;
31734;SDS011;18313;48.518;9.124;2022-12-18T17:07:38;96.90;;;43.80;;
31734;SDS011;18313;48.518;9.124;2022-12-18T17:10:24;91.22;;;39.50;;
31734;SDS011;18313;48.518;9.124;2022-12-18T17:13:09;91.70;;;40.90;;
31734;SDS011;18313;48.518;9.124;2022-12-18T17:15:59;110.65;;;48.90;;
31734;SDS011;18313;48.518;9.124;2022-12-18T17:21:39;110.45;;;43.95;;
31734;SDS011;18313;48.518;9.124;2022-12-18T17:24:25;95.20;;;41.70;;
31734;SDS011;18313;48.518;9.124;2022-12-18T17:27:18;96.35;;;42.97;;
31734;SDS011;18313;48.518;9.124;2022-12-18T17:30:04;100.25;;;45.58;;
31734;SDS011;18313;48.518;9.124;2022-12-18T17:32:50;103.28;;;43.05;;
31734;SDS011;18313;48.518;9.124;2022-12-18T17:35:36;94.35;;;41.15;;
31734;SDS011;18313;48.518;9.124;2022-12-18T17:38:21;98.38;;;43.50;;
31734;SDS011;18313;48.518;9.124;2022-12-18T17:41:07;104.38;;;42.55;;
31734;SDS011;18313;48.518;9.124;2022-12-18T17:43:59;107.63;;;46.90;;
31734;SDS011;18313;48.518;9.124;2022-12-18T17:46:48;117.72;;;47.35;;
31734;SDS011;18313;48.518;9.124;2022-12-18T17:49:34;114.72;;;46.33;;
31734;SDS011;18313;48.518;9.124;2022-12-18T17:52:19;113.40;;;43.90;;
31734;SDS011;18313;48.518;9.124;2022-12-18T17:55:05;101.20;;;42.97;;
31734;SDS011;18313;48.518;9.124;2022-12-18T17:57:51;114.68;;;49.13;;
31734;SDS011;18313;48.518;9.124;2022-12-18T18:00:37;138.13;;;54.22;;
31734;SDS011;18313;48.518;9.124;2022-12-18T18:03:23;128.68;;;51.17;;
31734;SDS011;18313;48.518;9.124;2022-12-18T18:06:09;115.50;;;46.78;;
31734;SDS011;18313;48.518;9.124;2022-12-18T18:08:55;104.35;;;45.10;;
31734;SDS011;18313;48.518;9.124;2022-12-18T18:11:41;104.03;;;44.88;;
31734;SDS011;18313;48.518;9.124;2022-12-18T18:14:46;105.37;;;41.40;;
31734;SDS011;18313;48.518;9.124;2022-12-18T18:17:31;106.20;;;43.33;;
31734;SDS011;18313;48.518;9.124;2022-12-18T18:20:17;95.38;;;43.15;;
31734;SDS011;18313;48.518;9.124;2022-12-18T18:23:06;104.13;;;45.00;;
31734;SDS011;18313;48.518;9.124;2022-12-18T18:25:52;92.53;;;42.17;;
31734;SDS011;18313;48.518;9.124;2022-12-18T18:28:39;102.38;;;43.25;;
31734;SDS011;18313;48.518;9.124;2022-12-18T18:31:25;98.53;;;44.28;;
31734;SDS011;18313;48.518;9.124;2022-12-18T18:34:13;103.60;;;44.72;;
31734;SDS011;18313;48.518;9.124;2022-12-18T18:37:00;79.55;;;37.15;;
31734;SDS011;18313;48.518;9.124;2022-12-18T18:39:46;82.03;;;38.08;;
31734;SDS011;18313;48.518;9.124;2022-12-18T18:42:32;77.95;;;34.63;;
31734;SDS011;18313;48.518;9.124;2022-12-18T18:45:18;79.50;;;35.63;;